Terminal Aerodrome Forecast
Issued by NWS

Home | Current Version | Previous Version | Text Only | Print | Product List | Glossary On
Versions: 1 2 3 4 5 6 7 8 9 10 11 12 13
192
FTUS46 KSEW 221130
TAFPAE
TAF
KPAE 221130Z 2212/2312 13006KT P6SM OVC045
      TEMPO 2216/2220 BKN045 BKN070
     FM222000 33006KT P6SM SCT045 BKN080
     FM230000 35004KT P6SM SCT045 OVC100
     FM230600 01003KT P6SM OVC050=

USA.gov is the U.S. government's official web portal to all federal, state and local government web resources and services.